sensor_id;sensor_type;location;lat;lon;timestamp;P1;P2;P0
69238;PMS5003;56349;51.816;-0.026;2023-05-29T00:00:13;17;16;
69238;PMS5003;56349;51.816;-0.026;2023-05-29T00:02:39;16;15;
69238;PMS5003;56349;51.816;-0.026;2023-05-29T00:05:05;14;14;
69238;PMS5003;56349;51.816;-0.026;2023-05-29T00:07:30;14;13;
69238;PMS5003;56349;51.816;-0.026;2023-05-29T00:09:55;13;12;
69238;PMS5003;56349;51.816;-0.026;2023-05-29T00:12:21;11;11;
69238;PMS5003;56349;51.816;-0.026;2023-05-29T00:14:47;8;8;
69238;PMS5003;56349;51.816;-0.026;2023-05-29T00:17:12;11;11;
69238;PMS5003;56349;51.816;-0.026;2023-05-29T00:19:38;11;11;
69238;PMS5003;56349;51.816;-0.026;2023-05-29T00:22:04;7;7;
69238;PMS5003;56349;51.816;-0.026;2023-05-29T00:24:30;9;9;
69238;PMS5003;56349;51.816;-0.026;2023-05-29T00:26:56;9;9;
69238;PMS5003;56349;51.816;-0.026;2023-05-29T00:29:22;10;10;
69238;PMS5003;56349;51.816;-0.026;2023-05-29T00:31:48;6;6;
69238;PMS5003;56349;51.816;-0.026;2023-05-29T00:34:14;9;8;
69238;PMS5003;56349;51.816;-0.026;2023-05-29T00:36:39;7;7;
69238;PMS5003;56349;51.816;-0.026;2023-05-29T00:39:05;7;7;
69238;PMS5003;56349;51.816;-0.026;2023-05-29T00:41:31;8;7;
69238;PMS5003;56349;51.816;-0.026;2023-05-29T00:43:57;7;5;
69238;PMS5003;56349;51.816;-0.026;2023-05-29T00:46:23;6;6;
69238;PMS5003;56349;51.816;-0.026;2023-05-29T00:48:49;7;7;
69238;PMS5003;56349;51.816;-0.026;2023-05-29T00:51:14;8;8;
69238;PMS5003;56349;51.816;-0.026;2023-05-29T00:53:39;8;8;
69238;PMS5003;56349;51.816;-0.026;2023-05-29T00:56:05;7;5;
69238;PMS5003;56349;51.816;-0.026;2023-05-29T00:58:30;5;5;
69238;PMS5003;56349;51.816;-0.026;2023-05-29T01:00:55;7;6;
69238;PMS5003;56349;51.816;-0.026;2023-05-29T01:03:20;8;7;
69238;PMS5003;56349;51.816;-0.026;2023-05-29T01:05:46;7;7;
69238;PMS5003;56349;51.816;-0.026;2023-05-29T01:08:12;7;5;
69238;PMS5003;56349;51.816;-0.026;2023-05-29T01:10:38;8;5;
69238;PMS5003;56349;51.816;-0.026;2023-05-29T01:13:06;12;12;
69238;PMS5003;56349;51.816;-0.026;2023-05-29T01:15:33;6;5;
69238;PMS5003;56349;51.816;-0.026;2023-05-29T01:20:25;5;5;
69238;PMS5003;56349;51.816;-0.026;2023-05-29T01:25:16;5;5;
69238;PMS5003;56349;51.816;-0.026;2023-05-29T01:27:38;8;6;
69238;PMS5003;56349;51.816;-0.026;2023-05-29T01:30:04;4;4;
69238;PMS5003;56349;51.816;-0.026;2023-05-29T01:32:30;6;6;
69238;PMS5003;56349;51.816;-0.026;2023-05-29T01:34:55;3;3;
69238;PMS5003;56349;51.816;-0.026;2023-05-29T01:37:21;5;5;
69238;PMS5003;56349;51.816;-0.026;2023-05-29T01:39:47;5;5;
69238;PMS5003;56349;51.816;-0.026;2023-05-29T01:42:13;6;6;
69238;PMS5003;56349;51.816;-0.026;2023-05-29T01:44:39;5;5;
69238;PMS5003;56349;51.816;-0.026;2023-05-29T01:47:05;8;7;
69238;PMS5003;56349;51.816;-0.026;2023-05-29T01:49:31;8;6;
69238;PMS5003;56349;51.816;-0.026;2023-05-29T01:51:57;6;5;
69238;PMS5003;56349;51.816;-0.026;2023-05-29T01:54:22;5;4;
69238;PMS5003;56349;51.816;-0.026;2023-05-29T01:56:48;4;4;
69238;PMS5003;56349;51.816;-0.026;2023-05-29T01:59:13;4;4;
69238;PMS5003;56349;51.816;-0.026;2023-05-29T02:01:39;4;4;
69238;PMS5003;56349;51.816;-0.026;2023-05-29T02:04:05;3;3;
69238;PMS5003;56349;51.816;-0.026;2023-05-29T02:06:31;3;3;
69238;PMS5003;56349;51.816;-0.026;2023-05-29T02:08:57;4;4;
69238;PMS5003;56349;51.816;-0.026;2023-05-29T02:11:23;4;4;
69238;PMS5003;56349;51.816;-0.026;2023-05-29T02:13:49;4;4;
69238;PMS5003;56349;51.816;-0.026;2023-05-29T02:16:15;5;5;
69238;PMS5003;56349;51.816;-0.026;2023-05-29T02:18:40;5;5;
69238;PMS5003;56349;51.816;-0.026;2023-05-29T02:21:06;3;3;
69238;PMS5003;56349;51.816;-0.026;2023-05-29T02:23:32;5;4;
69238;PMS5003;56349;51.816;-0.026;2023-05-29T02:25:58;5;3;
69238;PMS5003;56349;51.816;-0.026;2023-05-29T02:28:24;3;3;
69238;PMS5003;56349;51.816;-0.026;2023-05-29T02:30:50;5;5;
69238;PMS5003;56349;51.816;-0.026;2023-05-29T02:33:16;4;4;
69238;PMS5003;56349;51.816;-0.026;2023-05-29T02:35:42;4;4;
69238;PMS5003;56349;51.816;-0.026;2023-05-29T02:38:08;5;5;
69238;PMS5003;56349;51.816;-0.026;2023-05-29T02:40:33;3;3;
69238;PMS5003;56349;51.816;-0.026;2023-05-29T02:42:59;4;4;
69238;PMS5003;56349;51.816;-0.026;2023-05-29T02:45:25;5;3;
69238;PMS5003;56349;51.816;-0.026;2023-05-29T02:47:51;4;3;
69238;PMS5003;56349;51.816;-0.026;2023-05-29T02:50:17;2;2;
69238;PMS5003;56349;51.816;-0.026;2023-05-29T02:52:43;3;3;
69238;PMS5003;56349;51.816;-0.026;2023-05-29T02:55:09;4;3;
69238;PMS5003;56349;51.816;-0.026;2023-05-29T02:57:35;3;3;
69238;PMS5003;56349;51.816;-0.026;2023-05-29T03:00:01;5;4;
69238;PMS5003;56349;51.816;-0.026;2023-05-29T03:02:26;3;3;
69238;PMS5003;56349;51.816;-0.026;2023-05-29T03:04:52;3;3;
69238;PMS5003;56349;51.816;-0.026;2023-05-29T03:07:18;5;4;
69238;PMS5003;56349;51.816;-0.026;2023-05-29T03:09:44;4;4;
69238;PMS5003;56349;51.816;-0.026;2023-05-29T03:12:10;2;2;
69238;PMS5003;56349;51.816;-0.026;2023-05-29T03:14:36;2;2;
69238;PMS5003;56349;51.816;-0.026;2023-05-29T03:17:03;4;4;
69238;PMS5003;56349;51.816;-0.026;2023-05-29T03:19:27;3;3;
69238;PMS5003;56349;51.816;-0.026;2023-05-29T03:21:53;3;3;
69238;PMS5003;56349;51.816;-0.026;2023-05-29T03:24:19;3;3;
69238;PMS5003;56349;51.816;-0.026;2023-05-29T03:26:44;4;4;
69238;PMS5003;56349;51.816;-0.026;2023-05-29T03:29:10;5;4;
69238;PMS5003;56349;51.816;-0.026;2023-05-29T03:31:36;3;2;
69238;PMS5003;56349;51.816;-0.026;2023-05-29T03:34:02;3;3;
69238;PMS5003;56349;51.816;-0.026;2023-05-29T03:36:37;4;3;
69238;PMS5003;56349;51.816;-0.026;2023-05-29T03:38:54;4;4;
69238;PMS5003;56349;51.816;-0.026;2023-05-29T03:41:20;3;3;
69238;PMS5003;56349;51.816;-0.026;2023-05-29T03:43:46;3;3;
69238;PMS5003;56349;51.816;-0.026;2023-05-29T03:46:12;4;4;
69238;PMS5003;56349;51.816;-0.026;2023-05-29T03:48:38;3;3;
69238;PMS5003;56349;51.816;-0.026;2023-05-29T03:51:04;3;3;
69238;PMS5003;56349;51.816;-0.026;2023-05-29T03:53:29;4;3;
69238;PMS5003;56349;51.816;-0.026;2023-05-29T03:55:55;3;2;
69238;PMS5003;56349;51.816;-0.026;2023-05-29T03:58:21;2;2;
69238;PMS5003;56349;51.816;-0.026;2023-05-29T04:00:47;3;3;
69238;PMS5003;56349;51.816;-0.026;2023-05-29T04:03:13;3;3;
69238;PMS5003;56349;51.816;-0.026;2023-05-29T04:05:39;5;2;
69238;PMS5003;56349;51.816;-0.026;2023-05-29T04:08:05;5;4;
69238;PMS5003;56349;51.816;-0.026;2023-05-29T04:10:31;3;2;
69238;PMS5003;56349;51.816;-0.026;2023-05-29T04:12:57;1;1;
69238;PMS5003;56349;51.816;-0.026;2023-05-29T04:15:23;4;4;
69238;PMS5003;56349;51.816;-0.026;2023-05-29T04:17:49;5;5;
69238;PMS5003;56349;51.816;-0.026;2023-05-29T04:20:14;4;3;
69238;PMS5003;56349;51.816;-0.026;2023-05-29T04:22:40;3;3;
69238;PMS5003;56349;51.816;-0.026;2023-05-29T04:25:07;3;3;
69238;PMS5003;56349;51.816;-0.026;2023-05-29T04:27:32;4;4;
69238;PMS5003;56349;51.816;-0.026;2023-05-29T04:29:58;4;4;
69238;PMS5003;56349;51.816;-0.026;2023-05-29T04:32:24;4;4;
69238;PMS5003;56349;51.816;-0.026;2023-05-29T04:34:50;4;3;
69238;PMS5003;56349;51.816;-0.026;2023-05-29T04:37:16;2;2;
69238;PMS5003;56349;51.816;-0.026;2023-05-29T04:39:42;3;3;
69238;PMS5003;56349;51.816;-0.026;2023-05-29T04:42:07;4;4;
69238;PMS5003;56349;51.816;-0.026;2023-05-29T04:44:33;2;2;
69238;PMS5003;56349;51.816;-0.026;2023-05-29T04:46:59;3;2;
69238;PMS5003;56349;51.816;-0.026;2023-05-29T04:49:25;3;3;
69238;PMS5003;56349;51.816;-0.026;2023-05-29T04:51:51;6;5;
69238;PMS5003;56349;51.816;-0.026;2023-05-29T04:54:17;4;4;
69238;PMS5003;56349;51.816;-0.026;2023-05-29T04:56:43;3;3;
69238;PMS5003;56349;51.816;-0.026;2023-05-29T04:59:09;5;4;
69238;PMS5003;56349;51.816;-0.026;2023-05-29T05:01:35;4;4;
69238;PMS5003;56349;51.816;-0.026;2023-05-29T05:04:01;5;3;
69238;PMS5003;56349;51.816;-0.026;2023-05-29T05:06:27;5;5;
69238;PMS5003;56349;51.816;-0.026;2023-05-29T05:08:53;6;4;
69238;PMS5003;56349;51.816;-0.026;2023-05-29T05:11:18;3;3;
69238;PMS5003;56349;51.816;-0.026;2023-05-29T05:13:43;5;5;
69238;PMS5003;56349;51.816;-0.026;2023-05-29T05:16:09;5;4;
69238;PMS5003;56349;51.816;-0.026;2023-05-29T05:18:35;4;3;
69238;PMS5003;56349;51.816;-0.026;2023-05-29T05:21:01;4;4;
69238;PMS5003;56349;51.816;-0.026;2023-05-29T05:23:27;5;5;
69238;PMS5003;56349;51.816;-0.026;2023-05-29T05:25:53;4;3;
69238;PMS5003;56349;51.816;-0.026;2023-05-29T05:28:18;4;4;
69238;PMS5003;56349;51.816;-0.026;2023-05-29T05:30:44;5;5;
69238;PMS5003;56349;51.816;-0.026;2023-05-29T05:33:10;4;3;
69238;PMS5003;56349;51.816;-0.026;2023-05-29T05:35:36;5;5;
69238;PMS5003;56349;51.816;-0.026;2023-05-29T05:38:01;6;6;
69238;PMS5003;56349;51.816;-0.026;2023-05-29T05:40:27;5;5;
69238;PMS5003;56349;51.816;-0.026;2023-05-29T05:42:53;3;3;
69238;PMS5003;56349;51.816;-0.026;2023-05-29T05:45:19;5;5;
69238;PMS5003;56349;51.816;-0.026;2023-05-29T05:47:45;5;5;
69238;PMS5003;56349;51.816;-0.026;2023-05-29T05:50:10;4;4;
69238;PMS5003;56349;51.816;-0.026;2023-05-29T05:52:37;4;4;
69238;PMS5003;56349;51.816;-0.026;2023-05-29T05:55:02;4;4;
69238;PMS5003;56349;51.816;-0.026;2023-05-29T05:57:27;4;3;
69238;PMS5003;56349;51.816;-0.026;2023-05-29T05:59:53;5;5;
69238;PMS5003;56349;51.816;-0.026;2023-05-29T06:02:19;4;3;
69238;PMS5003;56349;51.816;-0.026;2023-05-29T06:04:44;4;4;
69238;PMS5003;56349;51.816;-0.026;2023-05-29T06:07:10;6;4;
69238;PMS5003;56349;51.816;-0.026;2023-05-29T06:09:36;4;4;
69238;PMS5003;56349;51.816;-0.026;2023-05-29T06:12:01;6;4;
69238;PMS5003;56349;51.816;-0.026;2023-05-29T06:14:26;4;4;
69238;PMS5003;56349;51.816;-0.026;2023-05-29T06:16:52;3;3;
69238;PMS5003;56349;51.816;-0.026;2023-05-29T06:19:18;3;3;
69238;PMS5003;56349;51.816;-0.026;2023-05-29T06:21:44;4;2;
69238;PMS5003;56349;51.816;-0.026;2023-05-29T06:24:10;3;3;
69238;PMS5003;56349;51.816;-0.026;2023-05-29T06:26:36;3;3;
69238;PMS5003;56349;51.816;-0.026;2023-05-29T06:29:01;3;3;
69238;PMS5003;56349;51.816;-0.026;2023-05-29T06:31:27;2;2;
69238;PMS5003;56349;51.816;-0.026;2023-05-29T06:33:52;3;3;
69238;PMS5003;56349;51.816;-0.026;2023-05-29T06:36:18;3;3;
69238;PMS5003;56349;51.816;-0.026;2023-05-29T06:38:45;4;3;
69238;PMS5003;56349;51.816;-0.026;2023-05-29T06:41:09;4;3;
69238;PMS5003;56349;51.816;-0.026;2023-05-29T06:43:35;4;4;
69238;PMS5003;56349;51.816;-0.026;2023-05-29T06:46:01;6;5;
69238;PMS5003;56349;51.816;-0.026;2023-05-29T06:48:27;4;4;
69238;PMS5003;56349;51.816;-0.026;2023-05-29T06:50:52;4;4;
69238;PMS5003;56349;51.816;-0.026;2023-05-29T06:53:18;6;6;
69238;PMS5003;56349;51.816;-0.026;2023-05-29T06:55:44;6;5;
69238;PMS5003;56349;51.816;-0.026;2023-05-29T06:58:10;5;5;
69238;PMS5003;56349;51.816;-0.026;2023-05-29T07:00:36;3;3;
69238;PMS5003;56349;51.816;-0.026;2023-05-29T07:03:01;3;3;
69238;PMS5003;56349;51.816;-0.026;2023-05-29T07:05:27;4;3;
69238;PMS5003;56349;51.816;-0.026;2023-05-29T07:07:53;3;3;
69238;PMS5003;56349;51.816;-0.026;2023-05-29T07:10:19;4;4;
69238;PMS5003;56349;51.816;-0.026;2023-05-29T07:12:45;3;3;
69238;PMS5003;56349;51.816;-0.026;2023-05-29T07:15:11;5;5;
69238;PMS5003;56349;51.816;-0.026;2023-05-29T07:17:37;3;3;
69238;PMS5003;56349;51.816;-0.026;2023-05-29T07:20:03;6;5;
69238;PMS5003;56349;51.816;-0.026;2023-05-29T07:22:28;5;5;
69238;PMS5003;56349;51.816;-0.026;2023-05-29T07:24:54;5;4;
69238;PMS5003;56349;51.816;-0.026;2023-05-29T07:29:45;6;6;
69238;PMS5003;56349;51.816;-0.026;2023-05-29T07:32:11;6;5;
69238;PMS5003;56349;51.816;-0.026;2023-05-29T07:34:37;4;4;
69238;PMS5003;56349;51.816;-0.026;2023-05-29T07:37:03;6;5;
69238;PMS5003;56349;51.816;-0.026;2023-05-29T07:39:28;6;5;
69238;PMS5003;56349;51.816;-0.026;2023-05-29T07:41:54;6;6;
69238;PMS5003;56349;51.816;-0.026;2023-05-29T07:44:20;4;4;
69238;PMS5003;56349;51.816;-0.026;2023-05-29T07:46:46;4;4;
69238;PMS5003;56349;51.816;-0.026;2023-05-29T07:49:12;5;5;
69238;PMS5003;56349;51.816;-0.026;2023-05-29T07:51:38;6;5;
69238;PMS5003;56349;51.816;-0.026;2023-05-29T07:54:04;4;4;
69238;PMS5003;56349;51.816;-0.026;2023-05-29T07:56:29;4;4;
69238;PMS5003;56349;51.816;-0.026;2023-05-29T07:58:55;3;3;
69238;PMS5003;56349;51.816;-0.026;2023-05-29T08:01:20;3;3;
69238;PMS5003;56349;51.816;-0.026;2023-05-29T08:03:46;4;4;
69238;PMS5003;56349;51.816;-0.026;2023-05-29T08:06:12;2;2;
69238;PMS5003;56349;51.816;-0.026;2023-05-29T08:08:38;5;5;
69238;PMS5003;56349;51.816;-0.026;2023-05-29T08:11:03;4;3;
69238;PMS5003;56349;51.816;-0.026;2023-05-29T08:13:29;4;4;
69238;PMS5003;56349;51.816;-0.026;2023-05-29T08:15:54;4;3;
69238;PMS5003;56349;51.816;-0.026;2023-05-29T08:18:20;5;5;
69238;PMS5003;56349;51.816;-0.026;2023-05-29T08:20:45;5;4;
69238;PMS5003;56349;51.816;-0.026;2023-05-29T08:23:11;3;3;
69238;PMS5003;56349;51.816;-0.026;2023-05-29T08:25:38;3;3;
69238;PMS5003;56349;51.816;-0.026;2023-05-29T08:28:03;4;4;
69238;PMS5003;56349;51.816;-0.026;2023-05-29T08:30:29;5;3;
69238;PMS5003;56349;51.816;-0.026;2023-05-29T08:32:55;4;4;
69238;PMS5003;56349;51.816;-0.026;2023-05-29T08:35:21;5;4;
69238;PMS5003;56349;51.816;-0.026;2023-05-29T08:37:47;4;4;
69238;PMS5003;56349;51.816;-0.026;2023-05-29T08:40:13;4;4;
69238;PMS5003;56349;51.816;-0.026;2023-05-29T08:42:42;5;5;
69238;PMS5003;56349;51.816;-0.026;2023-05-29T08:45:04;3;3;
69238;PMS5003;56349;51.816;-0.026;2023-05-29T08:47:31;5;5;
69238;PMS5003;56349;51.816;-0.026;2023-05-29T08:49:55;5;5;
69238;PMS5003;56349;51.816;-0.026;2023-05-29T08:52:23;4;3;
69238;PMS5003;56349;51.816;-0.026;2023-05-29T08:54:47;4;4;
69238;PMS5003;56349;51.816;-0.026;2023-05-29T08:57:12;5;4;
69238;PMS5003;56349;51.816;-0.026;2023-05-29T08:59:38;7;6;
69238;PMS5003;56349;51.816;-0.026;2023-05-29T09:02:02;7;4;
69238;PMS5003;56349;51.816;-0.026;2023-05-29T09:04:28;7;6;
69238;PMS5003;56349;51.816;-0.026;2023-05-29T09:06:54;4;4;
69238;PMS5003;56349;51.816;-0.026;2023-05-29T09:09:20;6;4;
69238;PMS5003;56349;51.816;-0.026;2023-05-29T09:11:46;4;3;
69238;PMS5003;56349;51.816;-0.026;2023-05-29T09:16:41;4;4;
69238;PMS5003;56349;51.816;-0.026;2023-05-29T09:19:05;4;4;
69238;PMS5003;56349;51.816;-0.026;2023-05-29T09:21:29;8;6;
69238;PMS5003;56349;51.816;-0.026;2023-05-29T09:24:01;4;4;
69238;PMS5003;56349;51.816;-0.026;2023-05-29T09:26:20;4;4;
69238;PMS5003;56349;51.816;-0.026;2023-05-29T09:28:45;6;4;
69238;PMS5003;56349;51.816;-0.026;2023-05-29T09:31:13;5;4;
69238;PMS5003;56349;51.816;-0.026;2023-05-29T09:33:46;1;1;
69238;PMS5003;56349;51.816;-0.026;2023-05-29T09:36:02;4;4;
69238;PMS5003;56349;51.816;-0.026;2023-05-29T09:38:28;5;5;
69238;PMS5003;56349;51.816;-0.026;2023-05-29T09:40:54;5;3;
69238;PMS5003;56349;51.816;-0.026;2023-05-29T09:43:20;3;2;
69238;PMS5003;56349;51.816;-0.026;2023-05-29T09:45:46;4;4;
69238;PMS5003;56349;51.816;-0.026;2023-05-29T09:48:12;6;5;
69238;PMS5003;56349;51.816;-0.026;2023-05-29T09:50:37;4;4;
69238;PMS5003;56349;51.816;-0.026;2023-05-29T09:53:03;4;4;
69238;PMS5003;56349;51.816;-0.026;2023-05-29T09:55:29;5;4;
69238;PMS5003;56349;51.816;-0.026;2023-05-29T09:57:54;5;5;
69238;PMS5003;56349;51.816;-0.026;2023-05-29T10:00:20;3;3;
69238;PMS5003;56349;51.816;-0.026;2023-05-29T10:02:45;4;4;
69238;PMS5003;56349;51.816;-0.026;2023-05-29T10:05:11;5;5;
69238;PMS5003;56349;51.816;-0.026;2023-05-29T10:07:37;3;3;
69238;PMS5003;56349;51.816;-0.026;2023-05-29T10:10:03;4;4;
69238;PMS5003;56349;51.816;-0.026;2023-05-29T10:12:28;3;3;
69238;PMS5003;56349;51.816;-0.026;2023-05-29T10:14:55;5;5;
69238;PMS5003;56349;51.816;-0.026;2023-05-29T10:17:21;3;3;
69238;PMS5003;56349;51.816;-0.026;2023-05-29T10:19:45;3;3;
69238;PMS5003;56349;51.816;-0.026;2023-05-29T10:22:11;4;4;
69238;PMS5003;56349;51.816;-0.026;2023-05-29T10:24:37;4;4;
69238;PMS5003;56349;51.816;-0.026;2023-05-29T10:27:03;5;5;
69238;PMS5003;56349;51.816;-0.026;2023-05-29T10:29:31;3;3;
69238;PMS5003;56349;51.816;-0.026;2023-05-29T10:32:00;5;4;
69238;PMS5003;56349;51.816;-0.026;2023-05-29T10:34:23;4;4;
69238;PMS5003;56349;51.816;-0.026;2023-05-29T10:36:47;4;4;
69238;PMS5003;56349;51.816;-0.026;2023-05-29T10:39:11;4;4;
69238;PMS5003;56349;51.816;-0.026;2023-05-29T10:41:37;4;4;
69238;PMS5003;56349;51.816;-0.026;2023-05-29T10:44:03;3;3;
69238;PMS5003;56349;51.816;-0.026;2023-05-29T10:48:53;5;3;
69238;PMS5003;56349;51.816;-0.026;2023-05-29T10:53:43;5;4;
69238;PMS5003;56349;51.816;-0.026;2023-05-29T10:56:10;5;3;
69238;PMS5003;56349;51.816;-0.026;2023-05-29T10:58:34;5;3;
69238;PMS5003;56349;51.816;-0.026;2023-05-29T11:01:00;2;2;
69238;PMS5003;56349;51.816;-0.026;2023-05-29T11:03:25;0;0;
69238;PMS5003;56349;51.816;-0.026;2023-05-29T11:08:17;2;2;
69238;PMS5003;56349;51.816;-0.026;2023-05-29T11:10:42;2;2;
69238;PMS5003;56349;51.816;-0.026;2023-05-29T11:13:08;2;2;
69238;PMS5003;56349;51.816;-0.026;2023-05-29T11:15:34;3;3;
69238;PMS5003;56349;51.816;-0.026;2023-05-29T11:20:28;2;2;
69238;PMS5003;56349;51.816;-0.026;2023-05-29T11:23:01;2;2;
69238;PMS5003;56349;51.816;-0.026;2023-05-29T11:25:17;2;2;
69238;PMS5003;56349;51.816;-0.026;2023-05-29T11:27:43;2;2;
69238;PMS5003;56349;51.816;-0.026;2023-05-29T11:30:09;4;3;
69238;PMS5003;56349;51.816;-0.026;2023-05-29T11:32:36;3;2;
69238;PMS5003;56349;51.816;-0.026;2023-05-29T11:35:00;2;2;
69238;PMS5003;56349;51.816;-0.026;2023-05-29T11:37:25;3;3;
69238;PMS5003;56349;51.816;-0.026;2023-05-29T11:39:51;2;2;
69238;PMS5003;56349;51.816;-0.026;2023-05-29T11:42:17;4;2;
69238;PMS5003;56349;51.816;-0.026;2023-05-29T11:44:43;2;2;
69238;PMS5003;56349;51.816;-0.026;2023-05-29T11:47:09;0;0;
69238;PMS5003;56349;51.816;-0.026;2023-05-29T11:49:36;4;1;
69238;PMS5003;56349;51.816;-0.026;2023-05-29T11:54:26;2;2;
69238;PMS5003;56349;51.816;-0.026;2023-05-29T11:56:52;1;1;
69238;PMS5003;56349;51.816;-0.026;2023-05-29T11:59:18;1;1;
69238;PMS5003;56349;51.816;-0.026;2023-05-29T12:01:44;1;1;
69238;PMS5003;56349;51.816;-0.026;2023-05-29T12:04:14;1;1;
69238;PMS5003;56349;51.816;-0.026;2023-05-29T12:06:35;2;2;
69238;PMS5003;56349;51.816;-0.026;2023-05-29T12:09:01;2;2;
69238;PMS5003;56349;51.816;-0.026;2023-05-29T12:11:27;3;2;
69238;PMS5003;56349;51.816;-0.026;2023-05-29T12:13:57;2;2;
69238;PMS5003;56349;51.816;-0.026;2023-05-29T12:16:19;1;1;
69238;PMS5003;56349;51.816;-0.026;2023-05-29T12:18:46;4;3;
69238;PMS5003;56349;51.816;-0.026;2023-05-29T12:21:12;2;2;
69238;PMS5003;56349;51.816;-0.026;2023-05-29T12:23:38;4;3;
69238;PMS5003;56349;51.816;-0.026;2023-05-29T12:26:04;1;1;
69238;PMS5003;56349;51.816;-0.026;2023-05-29T12:28:29;2;2;
69238;PMS5003;56349;51.816;-0.026;2023-05-29T12:30:58;2;2;
69238;PMS5003;56349;51.816;-0.026;2023-05-29T12:35:47;2;2;
69238;PMS5003;56349;51.816;-0.026;2023-05-29T12:38:12;3;1;
69238;PMS5003;56349;51.816;-0.026;2023-05-29T12:40:38;1;1;
69238;PMS5003;56349;51.816;-0.026;2023-05-29T12:43:04;3;3;
69238;PMS5003;56349;51.816;-0.026;2023-05-29T12:45:29;2;2;
69238;PMS5003;56349;51.816;-0.026;2023-05-29T12:47:54;2;2;
69238;PMS5003;56349;51.816;-0.026;2023-05-29T12:50:21;2;2;
69238;PMS5003;56349;51.816;-0.026;2023-05-29T12:52:48;2;2;
69238;PMS5003;56349;51.816;-0.026;2023-05-29T12:55:11;3;3;
69238;PMS5003;56349;51.816;-0.026;2023-05-29T12:57:37;2;1;
69238;PMS5003;56349;51.816;-0.026;2023-05-29T13:00:03;2;2;
69238;PMS5003;56349;51.816;-0.026;2023-05-29T13:02:29;1;1;
69238;PMS5003;56349;51.816;-0.026;2023-05-29T13:04:55;3;3;
69238;PMS5003;56349;51.816;-0.026;2023-05-29T13:07:21;2;2;
69238;PMS5003;56349;51.816;-0.026;2023-05-29T13:09:47;1;1;
69238;PMS5003;56349;51.816;-0.026;2023-05-29T13:12:13;2;2;
69238;PMS5003;56349;51.816;-0.026;2023-05-29T13:14:39;2;2;
69238;PMS5003;56349;51.816;-0.026;2023-05-29T13:17:05;3;2;
69238;PMS5003;56349;51.816;-0.026;2023-05-29T13:19:30;3;3;
69238;PMS5003;56349;51.816;-0.026;2023-05-29T13:21:56;3;2;
69238;PMS5003;56349;51.816;-0.026;2023-05-29T13:24:22;1;1;
69238;PMS5003;56349;51.816;-0.026;2023-05-29T13:26:48;3;2;
69238;PMS5003;56349;51.816;-0.026;2023-05-29T13:29:14;2;2;
69238;PMS5003;56349;51.816;-0.026;2023-05-29T13:31:40;1;1;
69238;PMS5003;56349;51.816;-0.026;2023-05-29T13:34:06;2;2;
69238;PMS5003;56349;51.816;-0.026;2023-05-29T13:36:32;3;2;
69238;PMS5003;56349;51.816;-0.026;2023-05-29T13:38:58;4;2;
69238;PMS5003;56349;51.816;-0.026;2023-05-29T13:41:24;4;3;
69238;PMS5003;56349;51.816;-0.026;2023-05-29T13:43:49;2;2;
69238;PMS5003;56349;51.816;-0.026;2023-05-29T13:46:15;3;2;
69238;PMS5003;56349;51.816;-0.026;2023-05-29T13:48:41;3;3;
69238;PMS5003;56349;51.816;-0.026;2023-05-29T13:51:07;2;2;
69238;PMS5003;56349;51.816;-0.026;2023-05-29T13:53:33;2;2;
69238;PMS5003;56349;51.816;-0.026;2023-05-29T13:55:59;4;3;
69238;PMS5003;56349;51.816;-0.026;2023-05-29T13:58:25;5;4;
69238;PMS5003;56349;51.816;-0.026;2023-05-29T14:00:51;3;2;
69238;PMS5003;56349;51.816;-0.026;2023-05-29T14:03:17;2;2;
69238;PMS5003;56349;51.816;-0.026;2023-05-29T14:05:43;3;2;
69238;PMS5003;56349;51.816;-0.026;2023-05-29T14:08:09;4;3;
69238;PMS5003;56349;51.816;-0.026;2023-05-29T14:10:35;2;1;
69238;PMS5003;56349;51.816;-0.026;2023-05-29T14:13:01;1;1;
69238;PMS5003;56349;51.816;-0.026;2023-05-29T14:15:27;2;2;
69238;PMS5003;56349;51.816;-0.026;2023-05-29T14:17:52;2;2;
69238;PMS5003;56349;51.816;-0.026;2023-05-29T14:20:18;1;1;
69238;PMS5003;56349;51.816;-0.026;2023-05-29T14:22:44;2;2;
69238;PMS5003;56349;51.816;-0.026;2023-05-29T14:25:10;5;3;
69238;PMS5003;56349;51.816;-0.026;2023-05-29T14:27:36;2;2;
69238;PMS5003;56349;51.816;-0.026;2023-05-29T14:30:02;3;2;
69238;PMS5003;56349;51.816;-0.026;2023-05-29T14:32:28;2;2;
69238;PMS5003;56349;51.816;-0.026;2023-05-29T14:34:54;3;3;
69238;PMS5003;56349;51.816;-0.026;2023-05-29T14:37:20;2;2;
69238;PMS5003;56349;51.816;-0.026;2023-05-29T14:39:46;2;1;
69238;PMS5003;56349;51.816;-0.026;2023-05-29T14:42:11;2;2;
69238;PMS5003;56349;51.816;-0.026;2023-05-29T14:44:37;3;3;
69238;PMS5003;56349;51.816;-0.026;2023-05-29T14:47:03;3;3;
69238;PMS5003;56349;51.816;-0.026;2023-05-29T14:49:28;3;2;
69238;PMS5003;56349;51.816;-0.026;2023-05-29T14:51:54;5;2;
69238;PMS5003;56349;51.816;-0.026;2023-05-29T14:54:20;2;2;
69238;PMS5003;56349;51.816;-0.026;2023-05-29T14:56:46;1;1;
69238;PMS5003;56349;51.816;-0.026;2023-05-29T14:59:12;4;2;
69238;PMS5003;56349;51.816;-0.026;2023-05-29T15:01:37;2;2;
69238;PMS5003;56349;51.816;-0.026;2023-05-29T15:04:03;1;1;
69238;PMS5003;56349;51.816;-0.026;2023-05-29T15:06:28;1;1;
69238;PMS5003;56349;51.816;-0.026;2023-05-29T15:08:54;1;1;
69238;PMS5003;56349;51.816;-0.026;2023-05-29T15:11:20;1;1;
69238;PMS5003;56349;51.816;-0.026;2023-05-29T15:13:46;2;2;
69238;PMS5003;56349;51.816;-0.026;2023-05-29T15:16:12;2;1;
69238;PMS5003;56349;51.816;-0.026;2023-05-29T15:18:38;3;3;
69238;PMS5003;56349;51.816;-0.026;2023-05-29T15:21:04;3;2;
69238;PMS5003;56349;51.816;-0.026;2023-05-29T15:23:30;2;2;
69238;PMS5003;56349;51.816;-0.026;2023-05-29T15:25:56;3;1;
69238;PMS5003;56349;51.816;-0.026;2023-05-29T15:28:22;2;2;
69238;PMS5003;56349;51.816;-0.026;2023-05-29T15:30:48;4;3;
69238;PMS5003;56349;51.816;-0.026;2023-05-29T15:33:14;5;4;
69238;PMS5003;56349;51.816;-0.026;2023-05-29T15:35:40;2;2;
69238;PMS5003;56349;51.816;-0.026;2023-05-29T15:38:06;3;3;
69238;PMS5003;56349;51.816;-0.026;2023-05-29T15:40:32;1;1;
69238;PMS5003;56349;51.816;-0.026;2023-05-29T15:42:57;2;2;
69238;PMS5003;56349;51.816;-0.026;2023-05-29T15:45:23;2;2;
69238;PMS5003;56349;51.816;-0.026;2023-05-29T15:47:49;2;2;
69238;PMS5003;56349;51.816;-0.026;2023-05-29T15:50:15;1;0;
69238;PMS5003;56349;51.816;-0.026;2023-05-29T15:52:41;3;3;
69238;PMS5003;56349;51.816;-0.026;2023-05-29T15:55:07;1;1;
69238;PMS5003;56349;51.816;-0.026;2023-05-29T15:57:32;4;3;
69238;PMS5003;56349;51.816;-0.026;2023-05-29T15:59:58;2;2;
69238;PMS5003;56349;51.816;-0.026;2023-05-29T16:02:24;3;3;
69238;PMS5003;56349;51.816;-0.026;2023-05-29T16:04:50;3;3;
69238;PMS5003;56349;51.816;-0.026;2023-05-29T16:07:16;3;3;
69238;PMS5003;56349;51.816;-0.026;2023-05-29T16:09:42;5;4;
69238;PMS5003;56349;51.816;-0.026;2023-05-29T16:12:08;2;1;
69238;PMS5003;56349;51.816;-0.026;2023-05-29T16:14:33;2;2;
69238;PMS5003;56349;51.816;-0.026;2023-05-29T16:16:59;3;3;
69238;PMS5003;56349;51.816;-0.026;2023-05-29T16:19:25;3;2;
69238;PMS5003;56349;51.816;-0.026;2023-05-29T16:21:51;5;4;
69238;PMS5003;56349;51.816;-0.026;2023-05-29T16:24:17;3;3;
69238;PMS5003;56349;51.816;-0.026;2023-05-29T16:26:43;4;3;
69238;PMS5003;56349;51.816;-0.026;2023-05-29T16:29:09;3;3;
69238;PMS5003;56349;51.816;-0.026;2023-05-29T16:31:35;2;1;
69238;PMS5003;56349;51.816;-0.026;2023-05-29T16:34:01;3;1;
69238;PMS5003;56349;51.816;-0.026;2023-05-29T16:36:27;3;3;
69238;PMS5003;56349;51.816;-0.026;2023-05-29T16:38:53;2;1;
69238;PMS5003;56349;51.816;-0.026;2023-05-29T16:41:19;1;1;
69238;PMS5003;56349;51.816;-0.026;2023-05-29T16:43:44;2;2;
69238;PMS5003;56349;51.816;-0.026;2023-05-29T16:46:10;2;2;